sensor_id;sensor_type;location;lat;lon;timestamp;pressure;altitude;pressure_sealevel;temperature;humidity
76404;BME280;65232;48.358;2.122;2023-04-25T00:00:14;100502.66;;;9.80;87.43
76404;BME280;65232;48.358;2.122;2023-04-25T00:00:39;100499.28;;;9.78;87.17
76404;BME280;65232;48.358;2.122;2023-04-25T00:01:05;100503.91;;;9.76;87.22
76404;BME280;65232;48.358;2.122;2023-04-25T00:01:30;100505.47;;;9.78;87.35
76404;BME280;65232;48.358;2.122;2023-04-25T00:01:57;100501.66;;;9.81;87.05
76404;BME280;65232;48.358;2.122;2023-04-25T00:02:22;100503.06;;;9.75;86.89
76404;BME280;65232;48.358;2.122;2023-04-25T00:02:48;100504.63;;;9.78;86.74
76404;BME280;65232;48.358;2.122;2023-04-25T00:03:13;100501.94;;;9.78;86.57
76404;BME280;65232;48.358;2.122;2023-04-25T00:03:39;100502.94;;;9.77;86.51
76404;BME280;65232;48.358;2.122;2023-04-25T00:04:05;100500.97;;;9.79;86.63
76404;BME280;65232;48.358;2.122;2023-04-25T00:04:31;100507.88;;;9.81;86.59
76404;BME280;65232;48.358;2.122;2023-04-25T00:04:58;100505.06;;;9.83;86.92
76404;BME280;65232;48.358;2.122;2023-04-25T00:05:24;100505.06;;;9.83;86.88
76404;BME280;65232;48.358;2.122;2023-04-25T00:05:49;100502.81;;;9.78;86.78
76404;BME280;65232;48.358;2.122;2023-04-25T00:06:16;100503.38;;;9.82;87.02
76404;BME280;65232;48.358;2.122;2023-04-25T00:06:42;100496.66;;;9.87;86.86
76404;BME280;65232;48.358;2.122;2023-04-25T00:07:08;100504.22;;;9.82;86.73
76404;BME280;65232;48.358;2.122;2023-04-25T00:07:34;100496.91;;;9.84;86.72
76404;BME280;65232;48.358;2.122;2023-04-25T00:07:59;100497.03;;;9.83;86.95
76404;BME280;65232;48.358;2.122;2023-04-25T00:08:25;100505.19;;;9.81;87.25
76404;BME280;65232;48.358;2.122;2023-04-25T00:08:51;100506.03;;;9.82;87.14
76404;BME280;65232;48.358;2.122;2023-04-25T00:09:17;100500.56;;;9.83;87.10
76404;BME280;65232;48.358;2.122;2023-04-25T00:09:42;100495.94;;;9.85;87.17
76404;BME280;65232;48.358;2.122;2023-04-25T00:10:09;100493.03;;;9.88;87.07
76404;BME280;65232;48.358;2.122;2023-04-25T00:10:36;100497.50;;;9.88;86.90
76404;BME280;65232;48.358;2.122;2023-04-25T00:11:01;100501.16;;;9.87;86.94
76404;BME280;65232;48.358;2.122;2023-04-25T00:11:27;100493.28;;;9.85;86.76
76404;BME280;65232;48.358;2.122;2023-04-25T00:11:52;100496.78;;;9.86;86.72
76404;BME280;65232;48.358;2.122;2023-04-25T00:12:18;100496.78;;;9.86;86.79
76404;BME280;65232;48.358;2.122;2023-04-25T00:12:43;100495.69;;;9.88;86.91
76404;BME280;65232;48.358;2.122;2023-04-25T00:13:09;100489.63;;;9.86;86.88
76404;BME280;65232;48.358;2.122;2023-04-25T00:13:36;100497.50;;;9.88;86.81
76404;BME280;65232;48.358;2.122;2023-04-25T00:14:03;100492.03;;;9.89;86.80
76404;BME280;65232;48.358;2.122;2023-04-25T00:14:29;100499.94;;;9.91;86.75
76404;BME280;65232;48.358;2.122;2023-04-25T00:14:55;100498.13;;;9.92;86.74
76404;BME280;65232;48.358;2.122;2023-04-25T00:15:25;100499.22;;;9.89;86.66
76404;BME280;65232;48.358;2.122;2023-04-25T00:15:51;100498.38;;;9.88;86.74
76404;BME280;65232;48.358;2.122;2023-04-25T00:16:16;100504.69;;;9.87;86.81
76404;BME280;65232;48.358;2.122;2023-04-25T00:16:42;100503.72;;;9.88;86.73
76404;BME280;65232;48.358;2.122;2023-04-25T00:17:09;100501.75;;;9.90;86.96
76404;BME280;65232;48.358;2.122;2023-04-25T00:17:34;100504.94;;;9.84;87.01
76404;BME280;65232;48.358;2.122;2023-04-25T00:18:00;100504.22;;;9.82;87.21
76404;BME280;65232;48.358;2.122;2023-04-25T00:18:26;100506.31;;;9.79;87.25
76404;BME280;65232;48.358;2.122;2023-04-25T00:18:54;100500.25;;;9.77;87.61
76404;BME280;65232;48.358;2.122;2023-04-25T00:19:20;100508.66;;;9.72;88.26
76404;BME280;65232;48.358;2.122;2023-04-25T00:19:45;100504.53;;;9.68;88.37
76404;BME280;65232;48.358;2.122;2023-04-25T00:20:11;100503.69;;;9.68;88.23
76404;BME280;65232;48.358;2.122;2023-04-25T00:20:37;100508.06;;;9.69;88.19
76404;BME280;65232;48.358;2.122;2023-04-25T00:21:02;100505.50;;;9.67;87.90
76404;BME280;65232;48.358;2.122;2023-04-25T00:21:28;100509.88;;;9.68;87.98
76404;BME280;65232;48.358;2.122;2023-04-25T00:21:57;100508.78;;;9.71;87.80
76404;BME280;65232;48.358;2.122;2023-04-25T00:22:22;100505.13;;;9.72;87.73
76404;BME280;65232;48.358;2.122;2023-04-25T00:22:48;100510.72;;;9.69;88.19
76404;BME280;65232;48.358;2.122;2023-04-25T00:23:14;100512.16;;;9.73;88.24
76404;BME280;65232;48.358;2.122;2023-04-25T00:23:42;100504.28;;;9.71;87.99
76404;BME280;65232;48.358;2.122;2023-04-25T00:24:08;100515.81;;;9.72;88.09
76404;BME280;65232;48.358;2.122;2023-04-25T00:24:33;100504.03;;;9.74;88.01
76404;BME280;65232;48.358;2.122;2023-04-25T00:24:59;100503.78;;;9.77;88.16
76404;BME280;65232;48.358;2.122;2023-04-25T00:25:25;100498.75;;;9.84;87.91
76404;BME280;65232;48.358;2.122;2023-04-25T00:25:50;100506.31;;;9.79;88.25
76404;BME280;65232;48.358;2.122;2023-04-25T00:26:16;100507.44;;;9.76;88.12
76404;BME280;65232;48.358;2.122;2023-04-25T00:26:41;100513.03;;;9.73;87.69
76404;BME280;65232;48.358;2.122;2023-04-25T00:27:07;100511.19;;;9.74;87.66
76404;BME280;65232;48.358;2.122;2023-04-25T00:27:33;100508.66;;;9.72;87.71
76404;BME280;65232;48.358;2.122;2023-04-25T00:27:58;100508.66;;;9.72;87.40
76404;BME280;65232;48.358;2.122;2023-04-25T00:28:24;100513.03;;;9.73;87.91
76404;BME280;65232;48.358;2.122;2023-04-25T00:28:49;100500.38;;;9.75;87.94
76404;BME280;65232;48.358;2.122;2023-04-25T00:29:15;100502.19;;;9.75;87.91
76404;BME280;65232;48.358;2.122;2023-04-25T00:29:40;100502.19;;;9.75;87.78
76404;BME280;65232;48.358;2.122;2023-04-25T00:30:06;100499.53;;;9.75;87.96
76404;BME280;65232;48.358;2.122;2023-04-25T00:30:32;100496.75;;;9.76;87.91
76404;BME280;65232;48.358;2.122;2023-04-25T00:30:57;100498.56;;;9.76;87.82
76404;BME280;65232;48.358;2.122;2023-04-25T00:31:23;100497.28;;;9.80;87.90
76404;BME280;65232;48.358;2.122;2023-04-25T00:31:48;100503.50;;;9.80;87.44
76404;BME280;65232;48.358;2.122;2023-04-25T00:32:14;100494.91;;;9.77;87.00
76404;BME280;65232;48.358;2.122;2023-04-25T00:32:39;100500.25;;;9.77;87.14
76404;BME280;65232;48.358;2.122;2023-04-25T00:33:05;100499.28;;;9.78;87.28
76404;BME280;65232;48.358;2.122;2023-04-25T00:33:31;100497.59;;;9.77;87.46
76404;BME280;65232;48.358;2.122;2023-04-25T00:33:56;100495.75;;;9.77;87.36
76404;BME280;65232;48.358;2.122;2023-04-25T00:34:22;100491.97;;;9.80;87.38
76404;BME280;65232;48.358;2.122;2023-04-25T00:34:47;100497.16;;;9.81;87.38
76404;BME280;65232;48.358;2.122;2023-04-25T00:35:13;100495.47;;;9.80;87.22
76404;BME280;65232;48.358;2.122;2023-04-25T00:35:38;100494.50;;;9.81;87.40
76404;BME280;65232;48.358;2.122;2023-04-25T00:36:04;100494.50;;;9.81;87.32
76404;BME280;65232;48.358;2.122;2023-04-25T00:36:29;100498.03;;;9.82;87.52
76404;BME280;65232;48.358;2.122;2023-04-25T00:36:55;100490.72;;;9.84;87.31
76404;BME280;65232;48.358;2.122;2023-04-25T00:37:21;100497.16;;;9.81;87.21
76404;BME280;65232;48.358;2.122;2023-04-25T00:37:47;100492.81;;;9.80;87.07
76404;BME280;65232;48.358;2.122;2023-04-25T00:38:12;100490.84;;;9.82;87.07
76404;BME280;65232;48.358;2.122;2023-04-25T00:38:38;100496.44;;;9.79;87.37
76404;BME280;65232;48.358;2.122;2023-04-25T00:39:03;100492.81;;;9.80;87.13
76404;BME280;65232;48.358;2.122;2023-04-25T00:39:29;100491.81;;;9.81;87.18
76404;BME280;65232;48.358;2.122;2023-04-25T00:39:57;100493.53;;;9.82;87.15
76404;BME280;65232;48.358;2.122;2023-04-25T00:40:22;100492.97;;;9.79;87.09
76404;BME280;65232;48.358;2.122;2023-04-25T00:40:48;100496.19;;;9.82;87.36
76404;BME280;65232;48.358;2.122;2023-04-25T00:41:14;100500.44;;;9.85;87.21
76404;BME280;65232;48.358;2.122;2023-04-25T00:41:39;100500.69;;;9.82;87.29
76404;BME280;65232;48.358;2.122;2023-04-25T00:42:05;100499.13;;;9.79;87.13
76404;BME280;65232;48.358;2.122;2023-04-25T00:42:31;100493.66;;;9.81;87.25
76404;BME280;65232;48.358;2.122;2023-04-25T00:42:57;100495.34;;;9.82;87.12
76404;BME280;65232;48.358;2.122;2023-04-25T00:43:23;100493.66;;;9.81;87.22
76404;BME280;65232;48.358;2.122;2023-04-25T00:43:50;100495.47;;;9.80;87.23
76404;BME280;65232;48.358;2.122;2023-04-25T00:44:17;100500.56;;;9.83;87.33
76404;BME280;65232;48.358;2.122;2023-04-25T00:44:43;100501.53;;;9.82;86.92
76404;BME280;65232;48.358;2.122;2023-04-25T00:45:12;100505.78;;;9.85;87.02
76404;BME280;65232;48.358;2.122;2023-04-25T00:45:39;100497.91;;;9.83;86.99
76404;BME280;65232;48.358;2.122;2023-04-25T00:46:05;100499.72;;;9.83;86.83
76404;BME280;65232;48.358;2.122;2023-04-25T00:46:31;100497.16;;;9.81;86.69
76404;BME280;65232;48.358;2.122;2023-04-25T00:46:57;100504.22;;;9.82;86.86
76404;BME280;65232;48.358;2.122;2023-04-25T00:47:23;100501.66;;;9.81;86.97
76404;BME280;65232;48.358;2.122;2023-04-25T00:47:49;100499.28;;;9.78;87.31
76404;BME280;65232;48.358;2.122;2023-04-25T00:48:15;100509.97;;;9.78;87.35
76404;BME280;65232;48.358;2.122;2023-04-25T00:48:42;100497.28;;;9.80;87.28
76404;BME280;65232;48.358;2.122;2023-04-25T00:49:08;100502.53;;;9.81;87.22
76404;BME280;65232;48.358;2.122;2023-04-25T00:49:33;100504.94;;;9.84;87.03
76404;BME280;65232;48.358;2.122;2023-04-25T00:49:58;100498.63;;;9.85;87.02
76404;BME280;65232;48.358;2.122;2023-04-25T00:50:24;100504.09;;;9.84;87.10
76404;BME280;65232;48.358;2.122;2023-04-25T00:50:54;100503.50;;;9.80;87.49
76404;BME280;65232;48.358;2.122;2023-04-25T00:51:22;100501.66;;;9.81;87.54
76404;BME280;65232;48.358;2.122;2023-04-25T00:51:47;100500.31;;;9.86;87.33
76404;BME280;65232;48.358;2.122;2023-04-25T00:52:13;100500.44;;;9.85;87.32
76404;BME280;65232;48.358;2.122;2023-04-25T00:52:41;100499.84;;;9.81;86.92
76404;BME280;65232;48.358;2.122;2023-04-25T00:53:08;100500.56;;;9.83;87.16
76404;BME280;65232;48.358;2.122;2023-04-25T00:53:35;100502.00;;;9.87;87.09
76404;BME280;65232;48.358;2.122;2023-04-25T00:54:01;100501.88;;;9.89;86.95
76404;BME280;65232;48.358;2.122;2023-04-25T00:54:26;100500.19;;;9.88;87.09
76404;BME280;65232;48.358;2.122;2023-04-25T00:54:52;100510.53;;;9.81;87.35
76404;BME280;65232;48.358;2.122;2023-04-25T00:55:17;100510.66;;;9.80;87.79
76404;BME280;65232;48.358;2.122;2023-04-25T00:55:43;100498.69;;;9.74;87.91
76404;BME280;65232;48.358;2.122;2023-04-25T00:56:09;100506.16;;;9.80;87.66
76404;BME280;65232;48.358;2.122;2023-04-25T00:56:35;100502.53;;;9.81;87.39
76404;BME280;65232;48.358;2.122;2023-04-25T00:57:00;100508.72;;;9.82;87.09
76404;BME280;65232;48.358;2.122;2023-04-25T00:57:26;100517.00;;;9.79;87.34
76404;BME280;65232;48.358;2.122;2023-04-25T00:57:52;100518.25;;;9.75;87.65
76404;BME280;65232;48.358;2.122;2023-04-25T00:58:18;100509.25;;;9.76;87.29
76404;BME280;65232;48.358;2.122;2023-04-25T00:58:44;100521.34;;;9.80;87.33
76404;BME280;65232;48.358;2.122;2023-04-25T00:59:09;100518.84;;;9.78;87.20
76404;BME280;65232;48.358;2.122;2023-04-25T00:59:36;100511.19;;;9.74;87.50
76404;BME280;65232;48.358;2.122;2023-04-25T01:00:01;100513.88;;;9.74;87.50
76404;BME280;65232;48.358;2.122;2023-04-25T01:00:28;100521.63;;;9.77;87.46
76404;BME280;65232;48.358;2.122;2023-04-25T01:00:55;100516.28;;;9.77;87.31
76404;BME280;65232;48.358;2.122;2023-04-25T01:01:21;100508.84;;;9.80;87.03
76404;BME280;65232;48.358;2.122;2023-04-25T01:01:47;100517.84;;;9.79;87.08
76404;BME280;65232;48.358;2.122;2023-04-25T01:02:12;100519.03;;;9.86;86.96
76404;BME280;65232;48.358;2.122;2023-04-25T01:02:38;100507.75;;;9.83;86.96
76404;BME280;65232;48.358;2.122;2023-04-25T01:03:04;100515.50;;;9.86;86.64
76404;BME280;65232;48.358;2.122;2023-04-25T01:03:32;100517.31;;;9.85;86.42
76404;BME280;65232;48.358;2.122;2023-04-25T01:04:00;100510.53;;;9.81;86.62
76404;BME280;65232;48.358;2.122;2023-04-25T01:04:27;100515.03;;;9.81;86.41
76404;BME280;65232;48.358;2.122;2023-04-25T01:04:53;100513.44;;;9.89;86.20
76404;BME280;65232;48.358;2.122;2023-04-25T01:05:18;100507.22;;;9.89;86.05
76404;BME280;65232;48.358;2.122;2023-04-25T01:05:44;100521.81;;;9.85;85.94
76404;BME280;65232;48.358;2.122;2023-04-25T01:06:10;100523.41;;;9.87;86.05
76404;BME280;65232;48.358;2.122;2023-04-25T01:06:36;100512.09;;;9.84;86.17
76404;BME280;65232;48.358;2.122;2023-04-25T01:07:02;100506.63;;;9.85;86.13
76404;BME280;65232;48.358;2.122;2023-04-25T01:07:27;100511.34;;;9.93;85.65
76404;BME280;65232;48.358;2.122;2023-04-25T01:07:53;100515.84;;;9.93;85.76
76404;BME280;65232;48.358;2.122;2023-04-25T01:08:21;100517.13;;;9.77;86.33
76404;BME280;65232;48.358;2.122;2023-04-25T01:08:47;100512.47;;;9.79;85.82
76404;BME280;65232;48.358;2.122;2023-04-25T01:09:13;100508.09;;;9.89;85.57
76404;BME280;65232;48.358;2.122;2023-04-25T01:09:39;100510.38;;;9.94;85.35
76404;BME280;65232;48.358;2.122;2023-04-25T01:10:05;100503.97;;;9.85;85.48
76404;BME280;65232;48.358;2.122;2023-04-25T01:10:31;100500.31;;;9.86;85.47
76404;BME280;65232;48.358;2.122;2023-04-25T01:10:56;100508.53;;;9.74;85.61
76404;BME280;65232;48.358;2.122;2023-04-25T01:11:22;100498.81;;;9.73;85.29
76404;BME280;65232;48.358;2.122;2023-04-25T01:11:48;100510.84;;;9.67;85.75
76404;BME280;65232;48.358;2.122;2023-04-25T01:12:14;100507.31;;;9.67;85.72
76404;BME280;65232;48.358;2.122;2023-04-25T01:12:40;100498.56;;;9.76;85.62
76404;BME280;65232;48.358;2.122;2023-04-25T01:13:07;100506.22;;;9.69;85.46
76404;BME280;65232;48.358;2.122;2023-04-25T01:13:32;100501.97;;;9.67;85.45
76404;BME280;65232;48.358;2.122;2023-04-25T01:13:58;100503.13;;;9.64;85.54
76404;BME280;65232;48.358;2.122;2023-04-25T01:14:24;100510.41;;;9.62;85.54
76404;BME280;65232;48.358;2.122;2023-04-25T01:14:49;100508.97;;;9.58;86.02
76404;BME280;65232;48.358;2.122;2023-04-25T01:15:14;100512.84;;;9.54;86.22
76404;BME280;65232;48.358;2.122;2023-04-25T01:15:40;100510.44;;;9.51;86.16
76404;BME280;65232;48.358;2.122;2023-04-25T01:16:06;100503.91;;;9.44;86.50
76404;BME280;65232;48.358;2.122;2023-04-25T01:16:32;100513.28;;;9.38;86.87
76404;BME280;65232;48.358;2.122;2023-04-25T01:16:58;100513.28;;;9.38;87.10
76404;BME280;65232;48.358;2.122;2023-04-25T01:17:24;100518.59;;;9.49;86.99
76404;BME280;65232;48.358;2.122;2023-04-25T01:17:49;100513.09;;;9.51;86.22
76404;BME280;65232;48.358;2.122;2023-04-25T01:18:15;100508.88;;;9.48;85.84
76404;BME280;65232;48.358;2.122;2023-04-25T01:18:41;100511.56;;;9.48;85.76
76404;BME280;65232;48.358;2.122;2023-04-25T01:19:09;100517.59;;;9.50;85.56
76404;BME280;65232;48.358;2.122;2023-04-25T01:19:36;100508.28;;;9.45;85.76
76404;BME280;65232;48.358;2.122;2023-04-25T01:20:05;100515.56;;;9.43;85.88
76404;BME280;65232;48.358;2.122;2023-04-25T01:20:33;100513.03;;;9.41;85.81
76404;BME280;65232;48.358;2.122;2023-04-25T01:21:09;100510.84;;;9.35;85.97
76404;BME280;65232;48.358;2.122;2023-04-25T01:21:35;100513.50;;;9.35;85.90
76404;BME280;65232;48.358;2.122;2023-04-25T01:22:01;100512.94;;;9.32;86.18
76404;BME280;65232;48.358;2.122;2023-04-25T01:22:26;100515.00;;;9.28;86.33
76404;BME280;65232;48.358;2.122;2023-04-25T01:22:52;100510.56;;;9.17;87.02
76404;BME280;65232;48.358;2.122;2023-04-25T01:23:19;100509.59;;;9.18;86.80
76404;BME280;65232;48.358;2.122;2023-04-25T01:23:45;100513.69;;;9.23;86.92
76404;BME280;65232;48.358;2.122;2023-04-25T01:24:12;100511.13;;;9.21;86.83
76404;BME280;65232;48.358;2.122;2023-04-25T01:24:38;100506.91;;;9.18;86.94
76404;BME280;65232;48.358;2.122;2023-04-25T01:25:04;100506.91;;;9.18;86.72
76404;BME280;65232;48.358;2.122;2023-04-25T01:25:31;100507.16;;;9.15;86.67
76404;BME280;65232;48.358;2.122;2023-04-25T01:25:56;100504.63;;;9.14;86.57
76404;BME280;65232;48.358;2.122;2023-04-25T01:26:22;100514.31;;;9.15;86.37
76404;BME280;65232;48.358;2.122;2023-04-25T01:26:48;100509.84;;;9.15;86.33
76404;BME280;65232;48.358;2.122;2023-04-25T01:27:22;100498.31;;;9.15;86.60
76404;BME280;65232;48.358;2.122;2023-04-25T01:27:48;100509.09;;;9.13;86.59
76404;BME280;65232;48.358;2.122;2023-04-25T01:28:14;100509.22;;;9.12;86.50
76404;BME280;65232;48.358;2.122;2023-04-25T01:28:40;100509.84;;;9.15;86.42
76404;BME280;65232;48.358;2.122;2023-04-25T01:29:07;100516.25;;;9.13;86.71
76404;BME280;65232;48.358;2.122;2023-04-25T01:29:36;100512.13;;;9.09;86.70
76404;BME280;65232;48.358;2.122;2023-04-25T01:30:03;100511.28;;;9.08;86.80
76404;BME280;65232;48.358;2.122;2023-04-25T01:30:29;100511.78;;;9.13;86.45
76404;BME280;65232;48.358;2.122;2023-04-25T01:30:56;100516.88;;;9.05;86.47
76404;BME280;65232;48.358;2.122;2023-04-25T01:31:21;100511.53;;;9.05;86.69
76404;BME280;65232;48.358;2.122;2023-04-25T01:31:47;100516.88;;;9.05;86.73
76404;BME280;65232;48.358;2.122;2023-04-25T01:32:13;100514.94;;;9.07;86.55
76404;BME280;65232;48.358;2.122;2023-04-25T01:32:40;100520.03;;;9.10;86.52
76404;BME280;65232;48.358;2.122;2023-04-25T01:33:07;100511.69;;;9.04;86.19
76404;BME280;65232;48.358;2.122;2023-04-25T01:33:34;100512.53;;;9.04;86.16
76404;BME280;65232;48.358;2.122;2023-04-25T01:34:00;100511.19;;;8.99;86.79
76404;BME280;65232;48.358;2.122;2023-04-25T01:34:27;100518.97;;;9.02;86.37
76404;BME280;65232;48.358;2.122;2023-04-25T01:34:56;100515.19;;;9.04;86.54
76404;BME280;65232;48.358;2.122;2023-04-25T01:35:21;100515.56;;;9.00;86.28
76404;BME280;65232;48.358;2.122;2023-04-25T01:35:52;100519.09;;;9.00;86.40
76404;BME280;65232;48.358;2.122;2023-04-25T01:36:19;100518.13;;;9.01;86.38
76404;BME280;65232;48.358;2.122;2023-04-25T01:36:46;100522.59;;;9.01;86.18
76404;BME280;65232;48.358;2.122;2023-04-25T01:37:12;100520.19;;;8.87;86.44
76404;BME280;65232;48.358;2.122;2023-04-25T01:37:38;100517.16;;;8.80;86.97
76404;BME280;65232;48.358;2.122;2023-04-25T01:38:04;100516.91;;;8.83;87.40
76404;BME280;65232;48.358;2.122;2023-04-25T01:38:29;100520.56;;;8.82;87.09
76404;BME280;65232;48.358;2.122;2023-04-25T01:38:55;100515.84;;;8.86;87.08
76404;BME280;65232;48.358;2.122;2023-04-25T01:39:21;100513.41;;;8.82;86.84
76404;BME280;65232;48.358;2.122;2023-04-25T01:39:46;100513.16;;;8.86;86.84
76404;BME280;65232;48.358;2.122;2023-04-25T01:40:12;100515.47;;;8.90;86.74
76404;BME280;65232;48.358;2.122;2023-04-25T01:40:39;100508.69;;;8.86;86.58
76404;BME280;65232;48.358;2.122;2023-04-25T01:41:05;100509.41;;;8.88;86.45
76404;BME280;65232;48.358;2.122;2023-04-25T01:41:31;100511.47;;;8.84;86.55
76404;BME280;65232;48.358;2.122;2023-04-25T01:41:58;100512.53;;;8.93;86.92
76404;BME280;65232;48.358;2.122;2023-04-25T01:42:24;100511.31;;;8.97;86.41
76404;BME280;65232;48.358;2.122;2023-04-25T01:42:50;100508.78;;;8.96;86.24
76404;BME280;65232;48.358;2.122;2023-04-25T01:43:16;100504.78;;;9.01;86.11
76404;BME280;65232;48.358;2.122;2023-04-25T01:43:42;100513.88;;;8.99;85.88
76404;BME280;65232;48.358;2.122;2023-04-25T01:44:08;100517.88;;;8.93;85.89
76404;BME280;65232;48.358;2.122;2023-04-25T01:44:33;100517.28;;;8.78;86.69
76404;BME280;65232;48.358;2.122;2023-04-25T01:44:59;100514.25;;;8.72;86.79
76404;BME280;65232;48.358;2.122;2023-04-25T01:45:26;100515.97;;;8.73;87.28
76404;BME280;65232;48.358;2.122;2023-04-25T01:45:52;100516.22;;;8.70;87.02
76404;BME280;65232;48.358;2.122;2023-04-25T01:46:18;100518.63;;;8.73;87.07
76404;BME280;65232;48.358;2.122;2023-04-25T01:46:43;100515.97;;;8.73;86.96
76404;BME280;65232;48.358;2.122;2023-04-25T01:47:10;100519.97;;;8.67;86.94
76404;BME280;65232;48.358;2.122;2023-04-25T01:47:36;100520.69;;;8.69;86.97
76404;BME280;65232;48.358;2.122;2023-04-25T01:48:02;100511.22;;;8.65;87.33
76404;BME280;65232;48.358;2.122;2023-04-25T01:48:28;100519.72;;;8.59;87.69
76404;BME280;65232;48.358;2.122;2023-04-25T01:48:53;100510.88;;;8.59;87.09
76404;BME280;65232;48.358;2.122;2023-04-25T01:49:19;100514.50;;;8.58;87.37
76404;BME280;65232;48.358;2.122;2023-04-25T01:49:45;100512.44;;;8.61;87.36
76404;BME280;65232;48.358;2.122;2023-04-25T01:50:11;100518.50;;;8.63;87.57
76404;BME280;65232;48.358;2.122;2023-04-25T01:50:38;100516.34;;;8.57;87.48
76404;BME280;65232;48.358;2.122;2023-04-25T01:51:03;100520.44;;;8.61;87.76
76404;BME280;65232;48.358;2.122;2023-04-25T01:51:29;100515.22;;;8.48;88.02
76404;BME280;65232;48.358;2.122;2023-04-25T01:51:55;100517.03;;;8.48;88.01
76404;BME280;65232;48.358;2.122;2023-04-25T01:52:21;100511.47;;;8.51;87.81
76404;BME280;65232;48.358;2.122;2023-04-25T01:52:47;100516.81;;;8.51;87.64
76404;BME280;65232;48.358;2.122;2023-04-25T01:53:13;100519.84;;;8.58;87.75
76404;BME280;65232;48.358;2.122;2023-04-25T01:53:42;100519.13;;;8.56;87.54
76404;BME280;65232;48.358;2.122;2023-04-25T01:54:08;100519.00;;;8.57;87.56
76404;BME280;65232;48.358;2.122;2023-04-25T01:54:35;100520.44;;;8.50;87.70
76404;BME280;65232;48.358;2.122;2023-04-25T01:55:02;100514.88;;;8.42;87.63
76404;BME280;65232;48.358;2.122;2023-04-25T01:55:29;100517.44;;;8.43;88.01
76404;BME280;65232;48.358;2.122;2023-04-25T01:56:00;100512.56;;;8.48;87.47
76404;BME280;65232;48.358;2.122;2023-04-25T01:56:31;100518.28;;;8.55;87.13
76404;BME280;65232;48.358;2.122;2023-04-25T01:56:57;100511.34;;;8.53;87.32
76404;BME280;65232;48.358;2.122;2023-04-25T01:57:22;100518.63;;;8.62;86.79
76404;BME280;65232;48.358;2.122;2023-04-25T01:57:48;100513.56;;;8.59;86.53
76404;BME280;65232;48.358;2.122;2023-04-25T01:58:14;100513.63;;;8.46;87.17
76404;BME280;65232;48.358;2.122;2023-04-25T01:59:18;100515.59;;;8.55;87.61
76404;BME280;65232;48.358;2.122;2023-04-25T02:00:12;100517.75;;;8.61;87.00
76404;BME280;65232;48.358;2.122;2023-04-25T02:00:40;100521.44;;;8.60;86.96
76404;BME280;65232;48.358;2.122;2023-04-25T02:01:06;100517.91;;;8.60;86.89
76404;BME280;65232;48.358;2.122;2023-04-25T02:01:38;100518.28;;;8.55;87.20
76404;BME280;65232;48.358;2.122;2023-04-25T02:02:24;100521.28;;;8.62;86.84
76404;BME280;65232;48.358;2.122;2023-04-25T02:02:51;100518.75;;;8.60;86.81
76404;BME280;65232;48.358;2.122;2023-04-25T02:03:24;100522.88;;;8.64;86.47
76404;BME280;65232;48.358;2.122;2023-04-25T02:03:50;100515.97;;;8.73;86.12
76404;BME280;65232;48.358;2.122;2023-04-25T02:04:23;100527.50;;;8.73;86.33
76404;BME280;65232;48.358;2.122;2023-04-25T02:04:48;100524.09;;;8.71;86.32
76404;BME280;65232;48.358;2.122;2023-04-25T02:05:14;100520.81;;;8.68;86.14
76404;BME280;65232;48.358;2.122;2023-04-25T02:05:41;100523.72;;;8.65;86.29
76404;BME280;65232;48.358;2.122;2023-04-25T02:06:09;100523.25;;;8.71;86.02
76404;BME280;65232;48.358;2.122;2023-04-25T02:06:38;100519.97;;;8.67;85.88
76404;BME280;65232;48.358;2.122;2023-04-25T02:07:05;100523.34;;;8.69;86.06
76404;BME280;65232;48.358;2.122;2023-04-25T02:07:41;100521.66;;;8.57;86.43
76404;BME280;65232;48.358;2.122;2023-04-25T02:08:07;100524.56;;;8.65;86.59
76404;BME280;65232;48.358;2.122;2023-04-25T02:08:34;100526.63;;;8.62;86.11
76404;BME280;65232;48.358;2.122;2023-04-25T02:08:59;100519.34;;;8.53;86.17
76404;BME280;65232;48.358;2.122;2023-04-25T02:09:25;100525.53;;;8.53;86.79
76404;BME280;65232;48.358;2.122;2023-04-25T02:09:54;100522.63;;;8.56;86.69
76404;BME280;65232;48.358;2.122;2023-04-25T02:10:21;100522.41;;;8.59;86.41
76404;BME280;65232;48.358;2.122;2023-04-25T02:11:10;100518.75;;;8.60;86.24
76404;BME280;65232;48.358;2.122;2023-04-25T02:11:42;100527.00;;;8.68;85.69
76404;BME280;65232;48.358;2.122;2023-04-25T02:12:36;100526.75;;;8.71;85.88
76404;BME280;65232;48.358;2.122;2023-04-25T02:13:34;100528.47;;;8.72;85.44
76404;BME280;65232;48.358;2.122;2023-04-25T02:14:06;100524.81;;;8.73;85.73
76404;BME280;65232;48.358;2.122;2023-04-25T02:14:42;100526.75;;;8.71;85.26
76404;BME280;65232;48.358;2.122;2023-04-25T02:15:15;100524.56;;;8.65;85.37
76404;BME280;65232;48.358;2.122;2023-04-25T02:15:49;100528.69;;;8.58;85.18
76404;BME280;65232;48.358;2.122;2023-04-25T02:16:17;100524.69;;;8.53;85.76
76404;BME280;65232;48.358;2.122;2023-04-25T02:16:43;100521.78;;;8.56;85.67
76404;BME280;65232;48.358;2.122;2023-04-25T02:17:09;100523.38;;;8.58;85.76
76404;BME280;65232;48.358;2.122;2023-04-25T02:17:34;100517.31;;;8.56;85.70
76404;BME280;65232;48.358;2.122;2023-04-25T02:18:00;100522.75;;;8.55;85.56
76404;BME280;65232;48.358;2.122;2023-04-25T02:18:25;100515.72;;;8.54;85.32
76404;BME280;65232;48.358;2.122;2023-04-25T02:18:51;100521.66;;;8.57;85.47
76404;BME280;65232;48.358;2.122;2023-04-25T02:19:18;100518.63;;;8.51;85.48
76404;BME280;65232;48.358;2.122;2023-04-25T02:19:46;100520.09;;;8.43;85.71
76404;BME280;65232;48.358;2.122;2023-04-25T02:20:11;100522.75;;;8.43;85.86
76404;BME280;65232;48.358;2.122;2023-04-25T02:20:38;100525.16;;;8.46;85.80
76404;BME280;65232;48.358;2.122;2023-04-25T02:21:04;100518.38;;;8.42;85.60
76404;BME280;65232;48.358;2.122;2023-04-25T02:21:29;100526.84;;;8.36;85.78
76404;BME280;65232;48.358;2.122;2023-04-25T02:21:55;100516.69;;;8.41;85.50
76404;BME280;65232;48.358;2.122;2023-04-25T02:22:22;100524.06;;;8.38;85.84
76404;BME280;65232;48.358;2.122;2023-04-25T02:22:48;100523.47;;;8.34;85.85